createdAt,value
2022-09-27T00:01:36.730Z,4.38
2022-09-27T00:04:07.505Z,4.80
2022-09-27T00:06:40.775Z,5.28
2022-09-27T00:09:12.079Z,4.65
2022-09-27T00:11:43.612Z,5.00
2022-09-27T00:14:16.042Z,4.70
2022-09-27T00:16:47.137Z,5.38
2022-09-27T00:19:19.595Z,4.93
2022-09-27T00:21:50.245Z,5.18
2022-09-27T00:24:22.101Z,5.30
2022-09-27T00:26:52.109Z,5.43
2022-09-27T00:29:26.238Z,5.20
2022-09-27T00:31:57.075Z,5.18
2022-09-27T00:34:27.925Z,5.00
2022-09-27T00:36:57.851Z,4.82
2022-09-27T00:39:29.787Z,4.55
2022-09-27T00:42:00.455Z,5.18
2022-09-27T00:45:07.740Z,5.28
2022-09-27T00:47:44.524Z,5.10
2022-09-27T00:50:25.371Z,5.07
2022-09-27T00:53:04.316Z,4.95
2022-09-27T00:55:38.015Z,5.05
2022-09-27T00:58:08.290Z,4.65
2022-09-27T01:00:41.565Z,5.07
2022-09-27T01:03:22.552Z,4.53
2022-09-27T01:05:54.412Z,5.10
2022-09-27T01:08:25.319Z,4.90
2022-09-27T01:11:09.424Z,5.65
2022-09-27T01:13:45.097Z,5.05
2022-09-27T01:16:23.079Z,4.55
2022-09-27T01:19:06.632Z,4.93
2022-09-27T01:21:43.774Z,5.40
2022-09-27T01:25:06.612Z,4.65
2022-09-27T01:28:03.058Z,5.75
2022-09-27T01:30:39.704Z,6.05
2022-09-27T01:33:23.756Z,5.95
2022-09-27T01:36:07.569Z,5.60
2022-09-27T01:38:47.301Z,4.72
2022-09-27T01:41:28.047Z,5.50
2022-09-27T01:44:23.533Z,5.57
2022-09-27T01:47:04.612Z,5.88
2022-09-27T01:49:47.222Z,5.30
2022-09-27T01:52:20.628Z,5.93
2022-09-27T01:54:56.005Z,5.60
2022-09-27T01:57:29.610Z,5.38
2022-09-27T02:02:49.882Z,5.70
2022-09-27T02:05:30.754Z,5.53
2022-09-27T02:08:09.357Z,6.18
2022-09-27T02:10:43.497Z,5.45
2022-09-27T02:13:23.614Z,5.88
2022-09-27T02:16:06.766Z,6.15
2022-09-27T02:18:52.745Z,6.32
2022-09-27T02:21:26.680Z,6.95
2022-09-27T02:24:00.138Z,6.13
2022-09-27T02:26:37.188Z,6.70
2022-09-27T02:29:12.787Z,6.80
2022-09-27T02:31:49.620Z,6.75
2022-09-27T02:34:24.078Z,6.70
2022-09-27T02:36:54.514Z,6.60
2022-09-27T02:39:25.204Z,7.03
2022-09-27T02:42:05.290Z,7.05
2022-09-27T02:44:35.740Z,6.72
2022-09-27T02:47:28.162Z,7.28
2022-09-27T02:50:16.602Z,7.30
2022-09-27T02:52:57.218Z,6.88
2022-09-27T02:55:46.313Z,7.80
2022-09-27T02:58:55.721Z,7.15
2022-09-27T03:01:52.092Z,8.35
2022-09-27T03:04:41.515Z,8.10
2022-09-27T03:07:13.945Z,7.78
2022-09-27T03:09:53.119Z,8.20
2022-09-27T03:12:26.246Z,8.25
2022-09-27T03:14:58.444Z,8.38
2022-09-27T03:17:56.739Z,8.43
2022-09-27T03:20:29.221Z,6.97
2022-09-27T03:23:14.155Z,8.68
2022-09-27T03:25:43.947Z,8.05
2022-09-27T03:28:15.195Z,7.97
2022-09-27T03:30:46.985Z,8.65
2022-09-27T03:33:30.203Z,7.57
2022-09-27T03:36:01.270Z,8.93
2022-09-27T03:38:31.799Z,8.18
2022-09-27T03:41:01.290Z,8.40
2022-09-27T03:43:33.392Z,8.60
2022-09-27T03:46:06.238Z,9.90
2022-09-27T03:48:36.355Z,9.32
2022-09-27T03:51:05.963Z,9.43
2022-09-27T03:53:36.305Z,8.80
2022-09-27T03:56:06.544Z,9.05
2022-09-27T03:58:36.383Z,7.85
2022-09-27T04:01:06.597Z,8.35
2022-09-27T04:03:37.749Z,9.13
2022-09-27T04:06:27.365Z,8.50
2022-09-27T04:08:58.303Z,9.40
2022-09-27T04:11:37.485Z,8.88
2022-09-27T04:14:06.542Z,9.80
2022-09-27T04:16:47.827Z,9.30
2022-09-27T04:19:32.805Z,8.88
2022-09-27T04:22:09.245Z,9.35
2022-09-27T04:24:39.614Z,8.63
2022-09-27T04:27:22.099Z,9.50
2022-09-27T04:29:53.071Z,9.83
2022-09-27T04:32:46.359Z,9.18
2022-09-27T04:35:55.721Z,9.25
2022-09-27T04:38:25.584Z,9.50
2022-09-27T04:40:55.916Z,9.93
2022-09-27T04:43:26.139Z,10.27
2022-09-27T04:45:55.523Z,9.60
2022-09-27T04:48:25.238Z,9.98
2022-09-27T04:51:00.248Z,9.10
2022-09-27T04:53:31.073Z,9.10
2022-09-27T04:56:06.139Z,9.45
2022-09-27T04:58:36.755Z,10.48
2022-09-27T05:01:06.658Z,10.38
2022-09-27T05:03:54.434Z,9.68
2022-09-27T05:06:23.916Z,9.57
2022-09-27T05:08:53.190Z,10.25
2022-09-27T05:11:29.242Z,10.07
2022-09-27T05:14:21.804Z,10.37
2022-09-27T05:17:11.778Z,10.65
2022-09-27T05:20:11.591Z,10.55
2022-09-27T05:25:23.614Z,11.57
2022-09-27T05:27:54.020Z,10.25
2022-09-27T05:30:23.562Z,10.38
2022-09-27T05:32:57.440Z,10.38
2022-09-27T05:35:53.389Z,10.45
2022-09-27T05:38:25.813Z,11.00
2022-09-27T05:40:58.642Z,10.38
2022-09-27T05:43:29.958Z,11.52
2022-09-27T05:46:05.595Z,10.57
2022-09-27T05:48:37.115Z,10.70
2022-09-27T05:51:09.505Z,11.35
2022-09-27T05:53:42.111Z,11.38
2022-09-27T05:56:21.952Z,10.60
2022-09-27T05:59:10.948Z,10.68
2022-09-27T06:02:04.222Z,9.75
2022-09-27T06:04:54.978Z,10.20
2022-09-27T06:07:53.414Z,10.38
2022-09-27T06:10:28.841Z,11.48
2022-09-27T06:13:02.442Z,11.30
2022-09-27T06:15:40.329Z,11.27
2022-09-27T06:18:11.289Z,12.25
2022-09-27T06:20:43.234Z,10.55
2022-09-27T06:23:14.904Z,11.30
2022-09-27T06:25:45.240Z,11.05
2022-09-27T06:28:35.178Z,9.60
2022-09-27T06:31:09.366Z,10.95
2022-09-27T06:33:54.996Z,11.50
2022-09-27T06:36:24.492Z,11.90
2022-09-27T06:38:53.848Z,11.85
2022-09-27T06:41:26.412Z,12.40
2022-09-27T06:44:13.276Z,12.73
2022-09-27T06:47:02.181Z,13.35
2022-09-27T06:49:52.428Z,11.88
2022-09-27T06:52:21.700Z,14.07
2022-09-27T06:54:51.181Z,13.25
2022-09-27T06:57:35.075Z,14.88
2022-09-27T07:03:12.201Z,12.73
2022-09-27T07:06:18.946Z,12.35
2022-09-27T07:08:53.567Z,12.65
2022-09-27T07:11:26.183Z,13.80
2022-09-27T07:13:56.595Z,13.48
2022-09-27T07:16:25.558Z,12.70
2022-09-27T07:18:56.126Z,12.30
2022-09-27T07:21:26.929Z,14.38
2022-09-27T07:23:56.522Z,13.35
2022-09-27T07:26:25.884Z,13.52
2022-09-27T07:28:56.701Z,14.27
2022-09-27T07:31:28.981Z,12.85
2022-09-27T07:33:59.372Z,13.13
2022-09-27T07:36:28.676Z,13.35
2022-09-27T07:39:00.376Z,14.93
2022-09-27T07:41:29.840Z,15.50
2022-09-27T07:43:59.724Z,14.00
2022-09-27T07:46:31.128Z,14.30
2022-09-27T07:49:11.028Z,15.68
2022-09-27T07:52:03.970Z,14.52
2022-09-27T07:54:53.046Z,14.20
2022-09-27T07:57:48.591Z,15.68
2022-09-27T08:00:20.350Z,20.00
2022-09-27T08:02:49.693Z,16.08
2022-09-27T08:05:20.339Z,16.65
2022-09-27T08:07:49.888Z,15.23
2022-09-27T08:10:19.422Z,14.82
2022-09-27T08:12:48.897Z,15.85
2022-09-27T08:15:19.056Z,16.23
2022-09-27T08:17:48.218Z,15.55
2022-09-27T08:20:22.440Z,14.27
2022-09-27T08:23:04.896Z,15.52
2022-09-27T08:25:37.883Z,15.07
2022-09-27T08:28:30.324Z,16.60
2022-09-27T08:31:05.803Z,15.20
2022-09-27T08:33:41.094Z,15.65
2022-09-27T08:36:15.442Z,14.55
2022-09-27T08:41:19.732Z,15.20
2022-09-27T08:43:58.105Z,14.68
2022-09-27T08:46:34.858Z,15.10
2022-09-27T08:49:11.097Z,34.20
2022-09-27T08:51:43.423Z,22.48
2022-09-27T08:54:20.252Z,14.93
2022-09-27T08:56:50.408Z,14.88
2022-09-27T08:59:22.273Z,14.32
2022-09-27T09:01:52.921Z,15.75
2022-09-27T09:04:40.461Z,15.07
2022-09-27T09:07:25.285Z,16.08
2022-09-27T09:10:00.246Z,14.50
2022-09-27T09:12:52.321Z,15.65
2022-09-27T09:15:53.974Z,15.43
2022-09-27T09:18:39.770Z,14.88
2022-09-27T09:21:21.435Z,13.95
2022-09-27T09:24:08.509Z,15.80
2022-09-27T09:26:44.399Z,15.25
2022-09-27T09:29:27.725Z,15.10
2022-09-27T09:32:06.429Z,15.23
2022-09-27T09:34:41.082Z,16.55
2022-09-27T09:37:19.857Z,16.13
2022-09-27T09:39:55.683Z,14.38
2022-09-27T09:42:30.662Z,15.35
2022-09-27T09:45:03.966Z,14.02
2022-09-27T09:47:39.745Z,13.85
2022-09-27T09:50:19.253Z,15.00
2022-09-27T09:52:54.489Z,15.80
2022-09-27T09:55:30.124Z,15.73
2022-09-27T09:58:07.151Z,15.90
2022-09-27T10:00:46.836Z,14.90
2022-09-27T10:03:16.286Z,13.65
2022-09-27T10:05:46.979Z,14.13
2022-09-27T10:08:20.815Z,15.13
2022-09-27T10:10:58.015Z,14.88
2022-09-27T10:13:45.651Z,14.35
2022-09-27T10:16:18.562Z,16.23
2022-09-27T10:18:50.908Z,13.50
2022-09-27T10:21:24.160Z,16.53
2022-09-27T10:24:13.702Z,15.55
2022-09-27T10:27:05.912Z,15.45
2022-09-27T10:29:39.928Z,14.90
2022-09-27T10:32:27.279Z,15.05
2022-09-27T10:35:38.011Z,14.45
2022-09-27T10:38:24.318Z,15.10
2022-09-27T10:40:59.965Z,16.17
2022-09-27T10:43:34.959Z,15.43
2022-09-27T10:46:29.885Z,14.07
2022-09-27T10:49:13.044Z,15.20
2022-09-27T10:51:42.866Z,15.13
2022-09-27T10:54:27.840Z,15.80
2022-09-27T10:57:00.675Z,15.02
2022-09-27T10:59:33.175Z,15.15
2022-09-27T11:02:02.739Z,13.95
2022-09-27T11:04:41.868Z,15.55
2022-09-27T11:07:16.578Z,14.75
2022-09-27T11:09:52.870Z,13.98
2022-09-27T11:12:25.363Z,14.98
2022-09-27T11:14:59.291Z,15.18
2022-09-27T11:17:36.539Z,15.93
2022-09-27T11:20:32.487Z,15.43
2022-09-27T11:23:18.073Z,14.75
2022-09-27T11:26:10.584Z,15.20
2022-09-27T11:28:53.955Z,14.05
2022-09-27T11:31:59.177Z,14.30
2022-09-27T11:34:43.910Z,13.50
2022-09-27T11:37:20.878Z,13.27
2022-09-27T11:40:06.258Z,13.60
2022-09-27T11:43:02.217Z,13.27
2022-09-27T11:46:02.987Z,13.65
2022-09-27T11:48:51.507Z,12.73
2022-09-27T11:51:31.931Z,13.18
2022-09-27T11:54:21.920Z,11.95
2022-09-27T11:57:00.128Z,12.55
2022-09-27T11:59:50.010Z,12.35
2022-09-27T12:02:37.349Z,13.27
2022-09-27T12:05:21.622Z,11.90
2022-09-27T12:08:10.471Z,11.43
2022-09-27T12:10:42.705Z,13.43
2022-09-27T12:13:16.118Z,12.55
2022-09-27T12:15:49.245Z,12.20
2022-09-27T12:18:27.631Z,12.07
2022-09-27T12:21:01.059Z,13.23
2022-09-27T12:23:40.151Z,11.90
2022-09-27T12:26:38.713Z,11.35
2022-09-27T12:29:14.334Z,12.00
2022-09-27T12:31:48.221Z,12.27
2022-09-27T12:34:23.672Z,12.20
2022-09-27T12:37:00.351Z,12.18
2022-09-27T12:39:39.671Z,12.68
2022-09-27T12:42:24.760Z,11.82
2022-09-27T12:44:56.267Z,11.65
2022-09-27T12:47:50.022Z,12.30
2022-09-27T12:50:31.197Z,11.65
2022-09-27T12:53:06.868Z,11.88
2022-09-27T12:55:48.226Z,13.50
2022-09-27T12:58:47.350Z,12.55
2022-09-27T13:01:29.415Z,15.52
2022-09-27T13:04:21.587Z,26.73
2022-09-27T13:07:00.837Z,13.15
2022-09-27T13:09:51.991Z,13.55
2022-09-27T13:12:24.390Z,11.45
2022-09-27T13:15:01.682Z,12.00
2022-09-27T13:17:53.387Z,13.27
2022-09-27T13:20:49.578Z,12.48
2022-09-27T13:24:00.785Z,10.38
2022-09-27T13:26:49.920Z,12.48
2022-09-27T13:29:34.396Z,14.68
2022-09-27T13:32:23.707Z,14.48
2022-09-27T13:35:28.567Z,15.40
2022-09-27T13:38:07.161Z,13.98
2022-09-27T13:40:46.763Z,14.05
2022-09-27T13:43:48.769Z,13.70
2022-09-27T13:46:29.201Z,16.13
2022-09-27T13:49:01.841Z,14.38
2022-09-27T13:51:53.396Z,13.80
2022-09-27T13:54:42.042Z,15.40
2022-09-27T13:57:43.717Z,14.23
2022-09-27T14:00:21.754Z,14.35
2022-09-27T14:03:02.764Z,16.17
2022-09-27T14:05:37.048Z,15.73
2022-09-27T14:08:16.385Z,16.73
2022-09-27T14:10:46.092Z,16.13
2022-09-27T14:13:21.568Z,17.02
2022-09-27T14:16:04.577Z,16.80
2022-09-27T14:18:37.786Z,16.52
2022-09-27T14:21:18.571Z,16.27
2022-09-27T14:24:26.472Z,16.60
2022-09-27T14:27:11.778Z,16.15
2022-09-27T14:29:44.915Z,16.35
2022-09-27T14:32:20.063Z,15.88
2022-09-27T14:35:30.156Z,17.42
2022-09-27T14:38:02.463Z,16.23
2022-09-27T14:40:42.482Z,16.75
2022-09-27T14:43:20.130Z,16.70
2022-09-27T14:45:52.242Z,17.55
2022-09-27T14:48:29.007Z,16.45
2022-09-27T14:51:06.224Z,16.38
2022-09-27T14:53:39.300Z,16.20
2022-09-27T14:56:11.977Z,16.25
2022-09-27T14:58:48.031Z,16.40
2022-09-27T15:01:20.370Z,16.25
2022-09-27T15:03:53.698Z,17.63
2022-09-27T15:06:25.071Z,15.55
2022-09-27T15:08:55.272Z,15.05
2022-09-27T15:11:24.667Z,15.93
2022-09-27T15:13:55.205Z,18.05
2022-09-27T15:16:26.289Z,15.73
2022-09-27T15:19:03.612Z,17.35
2022-09-27T15:21:35.065Z,17.17
2022-09-27T15:24:05.732Z,17.67
2022-09-27T15:26:40.039Z,16.25
2022-09-27T15:29:20.163Z,16.17
2022-09-27T15:32:00.719Z,16.73
2022-09-27T15:34:33.014Z,17.00
2022-09-27T15:37:05.161Z,16.63
2022-09-27T15:39:36.885Z,16.52
2022-09-27T15:42:10.881Z,15.38
2022-09-27T15:44:48.775Z,16.30
2022-09-27T15:47:42.320Z,16.48
2022-09-27T15:50:38.450Z,16.27
2022-09-27T15:53:07.981Z,14.77
2022-09-27T15:55:42.734Z,16.13
2022-09-27T15:58:17.378Z,16.00
2022-09-27T16:00:53.812Z,14.85
2022-09-27T16:03:23.760Z,14.85
2022-09-27T16:05:56.130Z,13.95
2022-09-27T16:08:26.510Z,15.90
2022-09-27T16:10:57.278Z,15.40
2022-09-27T16:13:32.414Z,15.68
2022-09-27T16:16:03.573Z,14.40
2022-09-27T16:18:34.248Z,15.27
2022-09-27T16:21:05.382Z,15.00
2022-09-27T16:23:34.475Z,15.00
2022-09-27T16:26:03.697Z,15.60
2022-09-27T16:28:33.901Z,14.48
2022-09-27T16:31:05.383Z,15.57
2022-09-27T16:33:35.910Z,15.98
2022-09-27T16:36:14.595Z,15.00
2022-09-27T16:38:44.668Z,15.60
2022-09-27T16:41:13.773Z,15.25
2022-09-27T16:43:44.338Z,15.15
2022-09-27T16:46:16.174Z,15.73
2022-09-27T16:48:45.608Z,15.90
2022-09-27T16:51:37.603Z,15.65
2022-09-27T16:54:08.704Z,16.05
2022-09-27T16:56:38.550Z,14.77
2022-09-27T16:59:08.202Z,15.10
2022-09-27T17:01:37.644Z,14.30
2022-09-27T17:04:08.492Z,14.10
2022-09-27T17:06:39.108Z,15.32
2022-09-27T17:09:08.707Z,15.25
2022-09-27T17:11:38.121Z,15.60
2022-09-27T17:14:07.509Z,14.98
2022-09-27T17:16:37.116Z,15.07
2022-09-27T17:19:06.565Z,16.00
2022-09-27T17:21:39.267Z,14.23
2022-09-27T17:24:09.664Z,15.55
2022-09-27T17:26:41.921Z,14.07
2022-09-27T17:29:12.086Z,14.10
2022-09-27T17:31:42.693Z,14.27
2022-09-27T17:34:14.471Z,14.02
2022-09-27T17:36:48.537Z,14.90
2022-09-27T17:39:23.636Z,14.52
2022-09-27T17:41:52.986Z,13.70
2022-09-27T17:44:24.019Z,14.73
2022-09-27T17:47:15.295Z,14.93
2022-09-27T17:50:02.448Z,14.23
2022-09-27T17:56:44.694Z,14.07
2022-09-27T17:59:16.137Z,15.05
2022-09-27T18:01:47.946Z,14.85
2022-09-27T18:04:23.206Z,14.85
2022-09-27T18:06:52.599Z,15.75
2022-09-27T18:09:22.201Z,16.15
2022-09-27T18:11:53.059Z,15.65
2022-09-27T18:14:25.395Z,15.50
2022-09-27T18:16:57.963Z,15.57
2022-09-27T18:19:27.857Z,17.50
2022-09-27T18:22:28.621Z,17.08
2022-09-27T18:24:58.200Z,15.90
2022-09-27T18:27:29.484Z,15.73
2022-09-27T18:30:00.257Z,14.18
2022-09-27T18:32:29.640Z,13.80
2022-09-27T18:34:59.633Z,12.57
2022-09-27T18:37:31.765Z,13.40
2022-09-27T18:40:04.134Z,12.85
2022-09-27T18:42:35.632Z,12.57
2022-09-27T18:45:14.422Z,12.98
2022-09-27T18:47:45.581Z,13.65
2022-09-27T18:50:15.927Z,12.45
2022-09-27T18:52:46.326Z,12.18
2022-09-27T18:55:16.291Z,12.30
2022-09-27T18:57:48.029Z,12.15
2022-09-27T19:00:18.014Z,12.13
2022-09-27T19:02:51.239Z,11.52
2022-09-27T19:05:21.310Z,11.98
2022-09-27T19:07:50.963Z,14.13
2022-09-27T19:10:21.060Z,12.45
2022-09-27T19:12:54.285Z,12.05
2022-09-27T19:15:23.965Z,12.32
2022-09-27T19:17:54.418Z,12.50
2022-09-27T19:20:23.852Z,11.18
2022-09-27T19:22:53.707Z,11.38
2022-09-27T19:25:23.382Z,11.68
2022-09-27T19:27:57.530Z,11.57
2022-09-27T19:30:27.357Z,10.73
2022-09-27T19:32:57.053Z,10.85
2022-09-27T19:35:26.776Z,11.43
2022-09-27T19:37:56.900Z,11.88
2022-09-27T19:40:27.246Z,11.32
2022-09-27T19:42:57.876Z,10.95
2022-09-27T19:45:27.639Z,11.02
2022-09-27T19:47:56.665Z,10.98
2022-09-27T19:50:26.097Z,11.30
2022-09-27T19:52:55.556Z,11.93
2022-09-27T19:55:24.491Z,9.40
2022-09-27T19:57:53.681Z,10.27
2022-09-27T20:00:24.377Z,10.68
2022-09-27T20:02:54.068Z,11.20
2022-09-27T20:05:23.631Z,12.07
2022-09-27T20:07:54.217Z,11.23
2022-09-27T20:10:23.201Z,10.88
2022-09-27T20:12:52.409Z,12.32
2022-09-27T20:15:22.064Z,10.52
2022-09-27T20:17:53.011Z,11.25
2022-09-27T20:20:23.147Z,11.05
2022-09-27T20:22:52.177Z,11.13
2022-09-27T20:25:21.445Z,10.20
2022-09-27T20:27:50.757Z,10.90
2022-09-27T20:30:19.769Z,11.60
2022-09-27T20:33:09.141Z,11.00
2022-09-27T20:35:42.416Z,11.30
2022-09-27T20:38:11.515Z,12.77
2022-09-27T20:40:41.085Z,11.07
2022-09-27T20:43:13.786Z,11.55
2022-09-27T20:45:43.526Z,10.47
2022-09-27T20:48:12.688Z,14.88
2022-09-27T20:50:43.081Z,10.88
2022-09-27T20:53:13.149Z,11.77
2022-09-27T20:55:42.653Z,11.88
2022-09-27T20:58:11.837Z,10.77
2022-09-27T21:00:40.815Z,10.23
2022-09-27T21:03:09.993Z,10.55
2022-09-27T21:05:39.411Z,10.60
2022-09-27T21:08:09.819Z,11.48
2022-09-27T21:10:39.201Z,11.32
2022-09-27T21:13:08.262Z,11.48
2022-09-27T21:15:38.208Z,11.13
2022-09-27T21:18:08.492Z,11.85
2022-09-27T21:20:37.930Z,12.27
2022-09-27T21:23:07.325Z,10.77
2022-09-27T21:25:37.998Z,11.90
2022-09-27T21:28:07.672Z,10.82
2022-09-27T21:30:37.424Z,11.55
2022-09-27T21:33:06.970Z,11.85
2022-09-27T21:35:36.506Z,10.65
2022-09-27T21:38:05.886Z,11.57
2022-09-27T21:40:35.806Z,12.98
2022-09-27T21:43:06.872Z,11.70
2022-09-27T21:45:36.684Z,12.05
2022-09-27T21:48:05.681Z,12.10
2022-09-27T21:50:34.447Z,11.40
2022-09-27T21:53:03.605Z,11.38
2022-09-27T21:55:32.723Z,10.52
2022-09-27T21:58:02.321Z,11.52
2022-09-27T22:00:32.761Z,11.43
2022-09-27T22:03:02.086Z,12.43
2022-09-27T22:05:31.016Z,13.40
2022-09-27T22:07:59.765Z,11.98
2022-09-27T22:10:28.800Z,13.15
2022-09-27T22:12:57.719Z,12.32
2022-09-27T22:15:26.804Z,11.88
2022-09-27T22:17:57.699Z,12.15
2022-09-27T22:20:27.838Z,10.48
2022-09-27T22:22:57.101Z,12.13
2022-09-27T22:25:26.753Z,12.35
2022-09-27T22:27:55.997Z,11.38
2022-09-27T22:30:25.400Z,11.18
2022-09-27T22:32:54.494Z,12.52
2022-09-27T22:35:26.341Z,11.93
2022-09-27T22:37:55.674Z,11.95
2022-09-27T22:40:25.045Z,11.73
2022-09-27T22:42:54.649Z,12.13
2022-09-27T22:45:24.038Z,12.73
2022-09-27T22:47:53.239Z,12.43
2022-09-27T22:50:22.232Z,11.68
2022-09-27T22:52:52.847Z,11.35
2022-09-27T22:55:21.805Z,12.57
2022-09-27T22:57:51.025Z,12.10
2022-09-27T23:00:20.936Z,12.85
2022-09-27T23:02:54.753Z,11.40
2022-09-27T23:05:24.293Z,12.50
2022-09-27T23:07:54.799Z,12.32
2022-09-27T23:10:24.394Z,12.52
2022-09-27T23:12:55.155Z,12.02
2022-09-27T23:15:24.189Z,12.77
2022-09-27T23:17:55.082Z,12.77
2022-09-27T23:20:24.861Z,12.60
2022-09-27T23:22:55.345Z,11.73
2022-09-27T23:25:24.749Z,11.43
2022-09-27T23:27:54.127Z,12.07
2022-09-27T23:30:29.095Z,11.95
2022-09-27T23:32:58.178Z,13.25
2022-09-27T23:35:31.043Z,11.75
2022-09-27T23:38:01.490Z,11.95
2022-09-27T23:40:31.548Z,12.07
2022-09-27T23:43:01.615Z,11.45
2022-09-27T23:45:31.165Z,11.20
2022-09-27T23:48:00.623Z,11.70
2022-09-27T23:50:30.337Z,12.32
2022-09-27T23:52:59.764Z,12.02
2022-09-27T23:55:30.151Z,11.88
2022-09-27T23:57:59.268Z,11.68
